createdAt,value
2018-08-24T00:00:30.403Z,2.17
2018-08-24T00:02:59.226Z,2.50
2018-08-24T00:05:28.359Z,2.17
2018-08-24T00:07:57.246Z,2.20
2018-08-24T00:10:26.072Z,2.60
2018-08-24T00:12:54.861Z,1.90
2018-08-24T00:15:23.687Z,2.03
2018-08-24T00:17:52.471Z,1.80
2018-08-24T00:20:21.303Z,1.90
2018-08-24T00:22:50.054Z,2.20
2018-08-24T00:25:18.830Z,1.53
2018-08-24T00:27:47.712Z,1.90
2018-08-24T00:30:16.491Z,1.97
2018-08-24T00:32:45.300Z,1.97
2018-08-24T00:35:14.087Z,1.40
2018-08-24T00:37:42.838Z,1.70
2018-08-24T00:40:11.635Z,1.87
2018-08-24T00:42:40.396Z,1.90
2018-08-24T00:45:09.183Z,2.27
2018-08-24T00:47:37.948Z,1.40
2018-08-24T00:50:06.779Z,2.00
2018-08-24T00:52:35.526Z,1.60
2018-08-24T00:55:04.303Z,1.73
2018-08-24T00:57:33.120Z,1.83
2018-08-24T01:00:01.907Z,1.70
2018-08-24T01:02:30.686Z,2.17
2018-08-24T01:04:59.448Z,1.47
2018-08-24T01:07:28.231Z,1.43
2018-08-24T01:10:01.271Z,1.53
2018-08-24T01:12:30.082Z,1.90
2018-08-24T01:14:58.968Z,2.20
2018-08-24T01:19:38.524Z,2.00
2018-08-24T01:22:07.290Z,1.43
2018-08-24T01:24:36.104Z,2.27
2018-08-24T01:27:06.053Z,1.40
2018-08-24T01:29:38.930Z,1.53
2018-08-24T01:32:07.827Z,1.60
2018-08-24T01:34:37.319Z,2.00
2018-08-24T01:37:06.119Z,1.30
2018-08-24T01:39:34.970Z,1.90
2018-08-24T01:42:03.744Z,1.33
2018-08-24T01:44:32.551Z,1.70
2018-08-24T01:47:01.387Z,1.50
2018-08-24T01:49:30.134Z,1.77
2018-08-24T01:51:58.919Z,2.23
2018-08-24T01:54:27.807Z,1.50
2018-08-24T01:56:56.600Z,1.90
2018-08-24T01:59:25.569Z,1.43
2018-08-24T02:01:54.374Z,1.73
2018-08-24T02:04:23.159Z,1.50
2018-08-24T02:06:51.943Z,2.00
2018-08-24T02:09:22.444Z,1.57
2018-08-24T02:11:51.324Z,1.80
2018-08-24T02:14:25.608Z,1.60
2018-08-24T02:16:54.428Z,1.80
2018-08-24T02:19:28.574Z,1.30
2018-08-24T02:22:02.722Z,2.47
2018-08-24T02:24:31.540Z,1.80
2018-08-24T02:27:00.348Z,1.73
2018-08-24T02:29:29.107Z,2.00
2018-08-24T02:31:57.903Z,1.83
2018-08-24T02:34:26.647Z,1.60
2018-08-24T02:36:55.454Z,1.70
2018-08-24T02:39:24.287Z,1.67
2018-08-24T02:41:53.030Z,1.80
2018-08-24T02:44:21.823Z,1.63
2018-08-24T02:46:50.611Z,1.70
2018-08-24T02:49:19.444Z,1.77
2018-08-24T02:51:48.236Z,1.53
2018-08-24T02:54:17.027Z,2.50
2018-08-24T02:56:45.802Z,1.73
2018-08-24T02:59:14.601Z,1.93
2018-08-24T03:01:43.360Z,2.20
2018-08-24T03:04:12.139Z,1.73
2018-08-24T03:06:40.932Z,1.80
2018-08-24T03:09:10.661Z,2.80
2018-08-24T03:11:39.428Z,1.60
2018-08-24T03:14:08.295Z,1.67
2018-08-24T03:16:37.120Z,1.67
2018-08-24T03:19:05.904Z,1.77
2018-08-24T03:21:34.670Z,2.00
2018-08-24T03:24:03.481Z,2.20
2018-08-24T03:26:32.245Z,1.40
2018-08-24T03:29:01.055Z,1.87
2018-08-24T03:31:29.813Z,1.57
2018-08-24T03:33:58.579Z,1.70
2018-08-24T03:36:27.327Z,1.70
2018-08-24T03:38:56.106Z,1.77
2018-08-24T03:41:24.904Z,1.77
2018-08-24T03:43:53.662Z,1.90
2018-08-24T03:46:22.474Z,1.43
2018-08-24T03:48:51.260Z,2.07
2018-08-24T03:51:20.042Z,2.37
2018-08-24T03:53:48.815Z,1.80
2018-08-24T03:56:17.604Z,1.50
2018-08-24T03:58:46.398Z,1.73
2018-08-24T04:01:15.220Z,1.30
2018-08-24T04:03:43.992Z,1.33
2018-08-24T04:06:12.764Z,1.90
2018-08-24T04:08:41.531Z,1.60
2018-08-24T04:11:10.345Z,1.17
2018-08-24T04:13:39.097Z,1.60
2018-08-24T04:16:07.888Z,1.47
2018-08-24T04:18:36.658Z,1.23
2018-08-24T04:21:05.466Z,1.80
2018-08-24T04:23:34.306Z,1.60
2018-08-24T04:26:03.125Z,1.00
2018-08-24T04:28:31.871Z,1.50
2018-08-24T04:31:00.659Z,1.00
2018-08-24T04:33:29.412Z,1.30
2018-08-24T04:35:58.206Z,1.40
2018-08-24T04:38:26.998Z,1.07
2018-08-24T04:40:55.778Z,1.50
2018-08-24T04:43:24.558Z,1.17
2018-08-24T04:45:53.332Z,1.23
2018-08-24T04:48:22.131Z,1.40
2018-08-24T04:50:50.936Z,1.40
2018-08-24T04:53:19.696Z,1.40
2018-08-24T04:55:48.480Z,1.40
2018-08-24T04:58:17.324Z,1.47
2018-08-24T05:00:46.095Z,1.40
2018-08-24T05:03:14.882Z,1.40
2018-08-24T05:05:43.659Z,1.50
2018-08-24T05:08:12.462Z,1.30
2018-08-24T05:10:41.207Z,1.50
2018-08-24T05:13:10.030Z,1.63
2018-08-24T05:15:38.828Z,1.40
2018-08-24T05:18:07.609Z,1.00
2018-08-24T05:20:36.394Z,1.47
2018-08-24T05:23:05.195Z,1.60
2018-08-24T05:25:34.018Z,1.47
2018-08-24T05:28:02.793Z,1.80
2018-08-24T05:30:31.562Z,1.60
2018-08-24T05:33:00.493Z,1.60
2018-08-24T05:35:29.330Z,1.67
2018-08-24T05:37:58.097Z,1.40
2018-08-24T05:40:26.883Z,1.60
2018-08-24T05:42:55.657Z,1.47
2018-08-24T05:45:24.435Z,1.47
2018-08-24T05:47:53.178Z,1.30
2018-08-24T05:50:21.989Z,1.30
2018-08-24T05:52:50.872Z,1.70
2018-08-24T05:55:19.626Z,1.40
2018-08-24T05:57:48.386Z,1.33
2018-08-24T06:00:17.442Z,1.10
2018-08-24T06:02:46.928Z,1.47
2018-08-24T06:05:15.723Z,1.50
2018-08-24T06:07:44.539Z,1.30
2018-08-24T06:10:13.304Z,1.40
2018-08-24T06:12:42.111Z,1.40
2018-08-24T06:15:10.964Z,1.30
2018-08-24T06:17:45.087Z,0.97
2018-08-24T06:20:13.882Z,1.17
2018-08-24T06:22:42.650Z,1.87
2018-08-24T06:25:12.291Z,1.50
2018-08-24T06:27:41.112Z,0.97
2018-08-24T06:30:10.287Z,1.43
2018-08-24T06:32:39.853Z,0.93
2018-08-24T06:35:09.094Z,1.00
2018-08-24T06:37:38.059Z,0.90
2018-08-24T06:40:06.921Z,1.20
2018-08-24T06:42:35.731Z,1.23
2018-08-24T06:45:04.646Z,1.37
2018-08-24T06:47:33.415Z,1.00
2018-08-24T06:50:02.261Z,1.30
2018-08-24T06:52:31.070Z,1.20
2018-08-24T06:54:59.889Z,1.13
2018-08-24T06:57:28.721Z,0.83
2018-08-24T06:59:57.463Z,1.00
2018-08-24T07:02:26.268Z,1.27
2018-08-24T07:04:55.038Z,0.93
2018-08-24T07:07:23.867Z,1.10
2018-08-24T07:09:52.682Z,1.07
2018-08-24T07:12:21.476Z,1.03
2018-08-24T07:14:50.248Z,1.10
2018-08-24T07:17:24.275Z,0.90
2018-08-24T07:19:53.349Z,1.00
2018-08-24T07:22:22.159Z,0.90
2018-08-24T07:24:50.931Z,1.07
2018-08-24T07:27:19.724Z,1.30
2018-08-24T07:29:48.585Z,0.97
2018-08-24T07:32:17.379Z,0.90
2018-08-24T07:34:46.188Z,0.87
2018-08-24T07:37:15.040Z,1.57
2018-08-24T07:39:43.891Z,0.90
2018-08-24T07:42:12.743Z,0.90
2018-08-24T07:44:46.872Z,1.50
2018-08-24T07:47:15.663Z,1.20
2018-08-24T07:49:44.559Z,0.90
2018-08-24T07:52:13.384Z,1.33
2018-08-24T07:54:42.168Z,1.17
2018-08-24T07:57:11.093Z,1.20
2018-08-24T07:59:39.845Z,0.77
2018-08-24T08:02:08.635Z,0.70
2018-08-24T08:04:37.391Z,0.90
2018-08-24T08:07:06.296Z,1.10
2018-08-24T08:09:35.185Z,1.83
2018-08-24T08:12:04.437Z,0.87
2018-08-24T08:14:33.463Z,1.03
2018-08-24T08:17:03.036Z,0.90
2018-08-24T08:19:32.738Z,0.80
2018-08-24T08:22:02.145Z,1.00
2018-08-24T08:24:31.062Z,0.70
2018-08-24T08:26:59.872Z,0.70
2018-08-24T08:29:34.232Z,0.90
2018-08-24T08:32:03.197Z,0.80
2018-08-24T08:34:36.002Z,0.90
2018-08-24T08:37:05.272Z,0.87
2018-08-24T08:39:38.204Z,0.63
2018-08-24T08:42:07.703Z,0.80
2018-08-24T08:44:36.875Z,0.87
2018-08-24T08:47:06.475Z,0.80
2018-08-24T08:49:35.429Z,0.70
2018-08-24T08:52:04.389Z,0.70
2018-08-24T08:54:33.736Z,0.60
2018-08-24T08:57:02.751Z,0.70
2018-08-24T08:59:31.568Z,0.90
2018-08-24T09:02:00.437Z,0.80
2018-08-24T09:04:33.737Z,0.80
2018-08-24T09:07:05.937Z,0.47
2018-08-24T09:09:35.031Z,0.50
2018-08-24T09:12:04.027Z,0.60
2018-08-24T09:14:33.000Z,0.83
2018-08-24T09:17:06.360Z,0.67
2018-08-24T09:19:40.568Z,0.57
2018-08-24T09:22:14.904Z,0.60
2018-08-24T09:24:48.991Z,0.80
2018-08-24T09:27:23.255Z,0.80
2018-08-24T09:29:52.144Z,1.00
2018-08-24T09:32:21.145Z,0.70
2018-08-24T09:34:51.671Z,0.70
2018-08-24T09:37:26.240Z,0.83
2018-08-24T09:39:55.527Z,0.70
2018-08-24T09:42:24.827Z,1.10
2018-08-24T09:44:53.692Z,0.77
2018-08-24T09:47:27.899Z,0.70
2018-08-24T09:50:04.128Z,0.80
2018-08-24T09:52:32.955Z,1.00
2018-08-24T09:55:01.804Z,1.30
2018-08-24T09:57:30.643Z,0.80
2018-08-24T09:59:59.454Z,1.17
2018-08-24T10:02:33.556Z,1.00
2018-08-24T10:05:07.767Z,0.60
2018-08-24T10:07:42.008Z,0.80
2018-08-24T10:10:10.932Z,0.80
2018-08-24T10:12:41.423Z,0.90
2018-08-24T10:15:10.388Z,0.70
2018-08-24T10:17:39.326Z,1.03
2018-08-24T10:20:08.529Z,0.90
2018-08-24T10:22:37.485Z,1.10
2018-08-24T10:25:06.781Z,0.90
2018-08-24T10:27:36.077Z,0.73
2018-08-24T10:30:05.220Z,0.70
2018-08-24T10:32:34.100Z,0.70
2018-08-24T10:35:02.912Z,0.63
2018-08-24T10:37:31.756Z,0.80
2018-08-24T10:40:00.603Z,0.70
2018-08-24T10:42:29.492Z,0.77
2018-08-24T10:44:58.829Z,0.53
2018-08-24T10:47:27.865Z,0.70
2018-08-24T10:49:56.938Z,1.00
2018-08-24T10:52:25.857Z,0.67
2018-08-24T10:54:55.283Z,1.00
2018-08-24T10:57:24.188Z,0.90
2018-08-24T10:59:53.037Z,0.70
2018-08-24T11:02:21.848Z,0.50
2018-08-24T11:04:51.007Z,0.70
2018-08-24T11:07:20.111Z,0.70
2018-08-24T11:09:48.812Z,0.83
2018-08-24T11:12:17.700Z,0.80
2018-08-24T11:14:46.552Z,0.90
2018-08-24T11:17:15.389Z,1.13
2018-08-24T11:19:44.232Z,1.17
2018-08-24T11:22:13.020Z,0.67
2018-08-24T11:24:42.171Z,0.67
2018-08-24T11:27:11.448Z,0.53
2018-08-24T11:29:40.428Z,0.50
2018-08-24T11:32:09.727Z,0.77
2018-08-24T11:34:38.648Z,0.90
2018-08-24T11:37:07.457Z,0.90
2018-08-24T11:39:36.842Z,0.60
2018-08-24T11:42:06.162Z,0.73
2018-08-24T11:44:41.042Z,0.73
2018-08-24T11:47:10.034Z,0.83
2018-08-24T11:49:39.285Z,0.80
2018-08-24T11:52:08.224Z,0.77
2018-08-24T11:54:37.591Z,0.90
2018-08-24T11:57:06.451Z,0.90
2018-08-24T11:59:35.409Z,0.83
2018-08-24T12:02:04.650Z,0.90
2018-08-24T12:04:33.481Z,0.97
2018-08-24T12:07:03.029Z,0.90
2018-08-24T12:09:32.134Z,0.80
2018-08-24T12:12:01.028Z,1.20
2018-08-24T12:14:29.830Z,0.90
2018-08-24T12:16:59.468Z,0.80
2018-08-24T12:19:28.464Z,0.80
2018-08-24T12:21:57.417Z,1.00
2018-08-24T12:24:26.351Z,1.00
2018-08-24T12:26:55.302Z,0.77
2018-08-24T12:29:24.103Z,0.90
2018-08-24T12:31:53.370Z,1.10
2018-08-24T12:34:22.661Z,1.00
2018-08-24T12:54:17.565Z,0.50
2018-08-24T12:59:55.861Z,0.97
2018-08-24T13:02:25.645Z,0.90
2018-08-24T13:07:47.858Z,0.80
2018-08-24T13:10:16.767Z,0.60
2018-08-24T13:12:45.632Z,0.70
2018-08-24T13:15:14.468Z,1.10
2018-08-24T13:17:43.762Z,0.80
2018-08-24T13:20:13.034Z,0.97
2018-08-24T13:31:41.030Z,0.83
2018-08-24T13:34:10.139Z,1.07
2018-08-24T13:36:38.975Z,1.43
2018-08-24T13:39:08.176Z,0.83
2018-08-24T13:41:37.417Z,0.70
2018-08-24T13:44:06.345Z,0.77
2018-08-24T13:46:35.627Z,0.87
2018-08-24T13:49:04.509Z,0.70
2018-08-24T13:51:33.314Z,1.10
2018-08-24T13:54:02.137Z,0.80
2018-08-24T13:56:30.965Z,0.77
2018-08-24T13:59:13.227Z,0.90
2018-08-24T14:01:52.992Z,0.80
2018-08-24T14:04:22.165Z,1.40
2018-08-24T14:06:51.092Z,0.73
2018-08-24T14:09:19.940Z,1.10
2018-08-24T14:11:48.795Z,1.00
2018-08-24T14:14:17.584Z,1.03
2018-08-24T14:16:46.808Z,1.00
2018-08-24T14:19:17.440Z,0.90
2018-08-24T14:21:46.384Z,1.07
2018-08-24T14:24:15.639Z,0.80
2018-08-24T14:26:44.589Z,1.20
2018-08-24T14:29:13.389Z,0.90
2018-08-24T14:31:42.440Z,1.00
2018-08-24T14:34:11.701Z,0.80
2018-08-24T14:36:41.768Z,0.80
2018-08-24T14:39:11.832Z,0.83
2018-08-24T14:41:41.036Z,0.53
2018-08-24T14:47:30.254Z,0.90
2018-08-24T14:49:59.553Z,0.90
2018-08-24T14:52:28.742Z,1.00
2018-08-24T14:54:57.730Z,1.70
2018-08-24T14:57:26.635Z,1.10
2018-08-24T14:59:55.763Z,1.17
2018-08-24T15:02:25.020Z,1.00
2018-08-24T15:04:53.838Z,0.87
2018-08-24T15:07:22.852Z,0.93
2018-08-24T15:09:53.085Z,1.13
2018-08-24T15:12:22.022Z,1.60
2018-08-24T15:14:50.993Z,1.23
2018-08-24T15:17:19.832Z,1.07
2018-08-24T15:19:48.673Z,1.27
2018-08-24T15:22:17.520Z,1.13
2018-08-24T15:24:46.488Z,1.20
2018-08-24T15:27:15.379Z,1.30
2018-08-24T15:29:44.305Z,1.20
2018-08-24T15:32:13.714Z,1.00
2018-08-24T15:34:43.528Z,1.43
2018-08-24T15:37:12.869Z,1.00
2018-08-24T15:39:42.097Z,0.90
2018-08-24T15:42:11.259Z,1.10
2018-08-24T15:47:36.773Z,0.90
2018-08-24T15:50:09.254Z,1.30
2018-08-24T15:52:51.269Z,1.20
2018-08-24T15:55:20.168Z,0.90
2018-08-24T15:57:48.960Z,1.47
2018-08-24T16:00:18.324Z,0.80
2018-08-24T16:02:47.452Z,1.30
2018-08-24T16:05:16.633Z,1.00
2018-08-24T16:07:45.857Z,1.20
2018-08-24T16:10:15.070Z,1.27
2018-08-24T16:12:44.278Z,1.50
2018-08-24T16:15:13.969Z,1.10
2018-08-24T16:17:42.991Z,1.17
2018-08-24T16:20:12.101Z,1.33
2018-08-24T16:22:41.308Z,0.93
2018-08-24T16:25:10.477Z,1.67
2018-08-24T16:27:39.439Z,0.87
2018-08-24T16:30:08.273Z,1.13
2018-08-24T16:32:37.746Z,0.93
2018-08-24T16:35:06.599Z,1.10
2018-08-24T16:37:35.744Z,1.20
2018-08-24T16:40:04.684Z,1.13
2018-08-24T16:42:33.502Z,1.00
2018-08-24T16:45:09.362Z,1.60
2018-08-24T16:47:38.259Z,1.10
2018-08-24T16:50:07.173Z,1.00
2018-08-24T16:52:36.574Z,1.40
2018-08-24T16:55:06.358Z,0.70
2018-08-24T16:57:35.624Z,0.90
2018-08-24T17:00:04.560Z,0.97
2018-08-24T17:02:33.681Z,0.80
2018-08-24T17:05:02.492Z,1.40
2018-08-24T17:07:31.468Z,1.20
2018-08-24T17:10:00.369Z,1.00
2018-08-24T17:12:29.213Z,1.20
2018-08-24T17:14:58.687Z,0.90
2018-08-24T17:17:28.023Z,0.63
2018-08-24T17:19:56.923Z,1.07
2018-08-24T17:22:25.805Z,1.40
2018-08-24T17:24:54.989Z,0.93
2018-08-24T17:27:24.076Z,1.40
2018-08-24T17:29:52.897Z,1.23
2018-08-24T17:32:21.695Z,1.87
2018-08-24T17:34:50.596Z,1.40
2018-08-24T17:37:19.841Z,1.27
2018-08-24T17:39:48.760Z,1.23
2018-08-24T17:42:18.029Z,0.90
2018-08-24T17:44:47.298Z,1.03
2018-08-24T17:47:16.289Z,1.40
2018-08-24T17:49:45.442Z,0.70
2018-08-24T17:52:14.375Z,1.13
2018-08-24T17:54:43.214Z,0.67
2018-08-24T17:57:12.045Z,1.47
2018-08-24T17:59:41.357Z,1.07
2018-08-24T18:02:10.736Z,1.10
2018-08-24T18:04:39.756Z,1.50
2018-08-24T18:07:08.999Z,1.43
2018-08-24T18:09:38.234Z,1.40
2018-08-24T18:12:07.250Z,1.00
2018-08-24T18:17:42.672Z,1.10
2018-08-24T18:20:11.913Z,1.37
2018-08-24T18:22:40.808Z,0.90
2018-08-24T18:25:10.521Z,1.90
2018-08-24T18:27:40.965Z,1.00
2018-08-24T18:30:10.706Z,1.00
2018-08-24T18:32:39.625Z,1.60
2018-08-24T18:35:08.866Z,2.93
2018-08-24T18:37:37.869Z,1.03
2018-08-24T18:40:07.514Z,0.60
2018-08-24T18:42:36.586Z,1.20
2018-08-24T18:45:05.737Z,1.33
2018-08-24T18:47:34.565Z,1.03
2018-08-24T18:50:03.490Z,1.03
2018-08-24T18:52:32.364Z,1.40
2018-08-24T18:55:01.212Z,1.20
2018-08-24T18:57:30.436Z,0.93
2018-08-24T18:59:59.352Z,1.30
2018-08-24T19:02:28.216Z,1.13
2018-08-24T19:04:57.035Z,1.30
2018-08-24T19:07:26.221Z,1.57
2018-08-24T19:09:55.176Z,1.70
2018-08-24T19:12:25.638Z,1.10
2018-08-24T19:14:55.458Z,0.97
2018-08-24T19:17:29.960Z,1.17
2018-08-24T19:21:01.617Z,1.00
2018-08-24T19:23:30.862Z,1.00
2018-08-24T19:26:00.005Z,1.23
2018-08-24T19:28:34.351Z,0.90
2018-08-24T19:31:05.097Z,0.90
2018-08-24T19:33:33.968Z,0.97
2018-08-24T19:48:08.288Z,1.60
2018-08-24T19:50:37.153Z,1.00
2018-08-24T19:53:06.219Z,0.70
2018-08-24T19:55:35.892Z,0.93
2018-08-24T19:58:11.035Z,1.43
2018-08-24T20:00:40.778Z,1.67
2018-08-24T20:03:10.427Z,1.27
2018-08-24T20:05:39.356Z,1.43
2018-08-24T20:08:13.592Z,1.63
2018-08-24T20:10:42.465Z,1.90
2018-08-24T20:13:11.976Z,1.43
2018-08-24T20:15:46.191Z,1.37
2018-08-24T20:18:15.038Z,1.50
2018-08-24T20:20:44.136Z,1.87
2018-08-24T20:23:13.392Z,1.70
2018-08-24T20:25:42.390Z,1.53
2018-08-24T20:28:11.284Z,1.60
2018-08-24T20:30:40.145Z,1.23
2018-08-24T20:33:10.221Z,1.47
2018-08-24T20:35:39.121Z,1.30
2018-08-24T20:38:08.563Z,1.60
2018-08-24T20:40:38.035Z,1.27
2018-08-24T20:43:07.132Z,1.30
2018-08-24T20:45:36.466Z,1.50
2018-08-24T20:48:05.524Z,1.20
2018-08-24T20:50:35.650Z,1.37
2018-08-24T20:53:05.063Z,1.40
2018-08-24T20:55:34.984Z,1.40
2018-08-24T20:58:05.326Z,1.30
2018-08-24T21:00:34.835Z,1.10
2018-08-24T21:03:04.391Z,0.60
2018-08-24T21:05:33.835Z,0.60
2018-08-24T21:08:03.265Z,0.67
2018-08-24T21:10:32.757Z,0.70
2018-08-24T21:13:04.593Z,0.73
2018-08-24T21:15:34.332Z,0.63
2018-08-24T21:18:04.700Z,0.47
2018-08-24T21:20:34.629Z,0.80
2018-08-24T21:23:05.907Z,0.40
2018-08-24T21:25:36.067Z,0.80
2018-08-24T21:28:05.315Z,0.60
2018-08-24T21:30:34.723Z,0.63
2018-08-24T21:33:04.511Z,0.50
2018-08-24T21:35:33.968Z,0.40
2018-08-24T21:38:03.598Z,0.40
2018-08-24T21:40:33.177Z,0.57
2018-08-24T21:43:05.957Z,0.40
2018-08-24T21:45:35.428Z,0.90
2018-08-24T21:48:05.783Z,0.80
2018-08-24T21:53:36.652Z,0.80
2018-08-24T21:56:06.236Z,0.87
2018-08-24T21:58:35.447Z,0.80
2018-08-24T22:01:05.480Z,0.77
2018-08-24T22:06:11.661Z,0.70
2018-08-24T22:08:42.184Z,0.80
2018-08-24T22:11:10.968Z,0.97
2018-08-24T22:13:59.190Z,0.80
2018-08-24T22:16:34.565Z,0.87
2018-08-24T22:19:14.937Z,0.77
2018-08-24T22:21:43.756Z,0.60
2018-08-24T22:24:12.600Z,0.70
2018-08-24T22:26:41.408Z,0.90
2018-08-24T22:29:10.623Z,0.93
2018-08-24T22:31:39.552Z,1.00
2018-08-24T22:34:08.373Z,1.00
2018-08-24T22:36:37.568Z,0.80
2018-08-24T22:39:08.254Z,0.87
2018-08-24T22:41:37.538Z,0.87
2018-08-24T22:44:06.411Z,0.90
2018-08-24T22:46:35.631Z,1.00
2018-08-24T22:49:04.973Z,1.10
2018-08-24T22:51:34.222Z,0.73
2018-08-24T22:54:03.500Z,1.07
2018-08-24T22:56:32.830Z,0.90
2018-08-24T22:59:01.799Z,1.00
2018-08-24T23:01:30.593Z,0.80
2018-08-24T23:03:59.435Z,0.90
2018-08-24T23:06:28.588Z,1.17
2018-08-24T23:08:57.875Z,1.17
2018-08-24T23:11:27.229Z,1.10
2018-08-24T23:13:56.491Z,1.10
2018-08-24T23:16:25.483Z,1.17
2018-08-24T23:18:54.668Z,1.17
2018-08-24T23:21:23.974Z,1.20
2018-08-24T23:23:52.919Z,1.23
2018-08-24T23:26:21.719Z,0.90
2018-08-24T23:28:50.550Z,1.33
2018-08-24T23:31:19.728Z,1.30
2018-08-24T23:33:48.716Z,1.43
2018-08-24T23:36:17.568Z,1.10
2018-08-24T23:38:46.758Z,1.30
2018-08-24T23:41:15.657Z,1.43
2018-08-24T23:43:44.896Z,1.43
2018-08-24T23:46:13.841Z,1.10
2018-08-24T23:48:42.676Z,1.03
2018-08-24T23:51:11.862Z,1.10
2018-08-24T23:53:40.792Z,1.40
2018-08-24T23:56:09.975Z,1.40
2018-08-24T23:58:38.866Z,1.23
